createdAt,value
2018-06-16T00:01:42.727Z,13.23
2018-06-16T00:04:10.249Z,12.27
2018-06-16T00:06:37.870Z,11.77
2018-06-16T00:09:07.177Z,11.97
2018-06-16T00:11:34.794Z,11.83
2018-06-16T00:14:02.309Z,12.43
2018-06-16T00:16:29.806Z,11.97
2018-06-16T00:18:57.333Z,11.30
2018-06-16T00:21:24.862Z,11.50
2018-06-16T00:23:52.386Z,12.77
2018-06-16T00:26:19.959Z,12.83
2018-06-16T00:28:47.474Z,13.10
2018-06-16T00:31:14.986Z,13.37
2018-06-16T00:33:42.579Z,13.50
2018-06-16T00:36:10.094Z,13.40
2018-06-16T00:38:37.591Z,13.60
2018-06-16T00:41:05.146Z,13.17
2018-06-16T00:43:32.750Z,13.53
2018-06-16T00:46:00.274Z,13.63
2018-06-16T00:48:27.847Z,12.73
2018-06-16T00:50:56.023Z,11.80
2018-06-16T00:53:23.638Z,11.50
2018-06-16T00:55:51.543Z,11.73
2018-06-16T00:58:19.354Z,11.67
2018-06-16T01:00:47.044Z,12.43
2018-06-16T01:03:15.060Z,11.67
2018-06-16T01:05:42.786Z,10.60
2018-06-16T01:08:10.458Z,9.73
2018-06-16T01:10:38.274Z,10.63
2018-06-16T01:13:05.810Z,10.83
2018-06-16T01:15:33.347Z,9.80
2018-06-16T01:18:00.903Z,10.50
2018-06-16T01:20:28.450Z,10.17
2018-06-16T01:22:56.060Z,9.60
2018-06-16T01:25:23.593Z,9.67
2018-06-16T01:27:51.105Z,10.13
2018-06-16T01:30:18.635Z,9.03
2018-06-16T01:32:46.174Z,8.93
2018-06-16T01:35:13.720Z,9.10
2018-06-16T01:37:41.429Z,8.50
2018-06-16T01:40:09.435Z,11.47
2018-06-16T01:42:37.063Z,10.53
2018-06-16T01:45:04.770Z,10.17
2018-06-16T01:47:32.306Z,9.90
2018-06-16T01:50:00.081Z,9.63
2018-06-16T01:52:27.806Z,10.10
2018-06-16T01:54:55.522Z,9.80
2018-06-16T01:57:23.066Z,10.03
2018-06-16T01:59:50.656Z,11.00
2018-06-16T02:02:18.233Z,10.37
2018-06-16T02:04:45.846Z,10.00
2018-06-16T02:07:13.742Z,8.97
2018-06-16T02:09:41.465Z,10.03
2018-06-16T02:12:09.149Z,10.60
2018-06-16T02:14:36.746Z,10.20
2018-06-16T02:17:04.310Z,10.03
2018-06-16T02:19:31.993Z,9.77
2018-06-16T02:21:59.526Z,9.73
2018-06-16T02:24:27.183Z,10.70
2018-06-16T02:26:54.850Z,9.73
2018-06-16T02:29:22.534Z,8.60
2018-06-16T02:31:50.155Z,9.13
2018-06-16T02:34:17.768Z,10.13
2018-06-16T02:36:45.323Z,9.73
2018-06-16T02:39:12.946Z,8.93
2018-06-16T02:41:40.617Z,9.33
2018-06-16T02:44:08.360Z,9.27
2018-06-16T02:46:36.094Z,9.70
2018-06-16T02:49:03.834Z,10.60
2018-06-16T02:51:31.634Z,10.70
2018-06-16T02:53:59.223Z,9.63
2018-06-16T02:56:26.971Z,9.43
2018-06-16T02:58:54.622Z,9.70
2018-06-16T03:01:22.187Z,9.30
2018-06-16T03:03:49.938Z,9.80
2018-06-16T03:06:17.538Z,9.80
2018-06-16T03:08:45.146Z,9.83
2018-06-16T03:11:12.820Z,9.17
2018-06-16T03:13:40.458Z,9.57
2018-06-16T03:16:08.055Z,9.60
2018-06-16T03:18:35.594Z,8.90
2018-06-16T03:21:03.286Z,9.70
2018-06-16T03:23:30.997Z,9.67
2018-06-16T03:25:58.878Z,9.60
2018-06-16T03:28:26.498Z,9.20
2018-06-16T03:30:54.162Z,8.70
2018-06-16T03:33:21.683Z,8.53
2018-06-16T03:35:49.478Z,9.23
2018-06-16T03:38:17.017Z,8.80
2018-06-16T03:40:44.593Z,8.57
2018-06-16T03:43:12.122Z,8.97
2018-06-16T03:45:40.010Z,9.50
2018-06-16T03:48:07.550Z,8.33
2018-06-16T03:50:35.266Z,9.00
2018-06-16T03:53:02.822Z,8.70
2018-06-16T03:55:30.338Z,9.57
2018-06-16T03:57:57.894Z,9.47
2018-06-16T04:00:25.402Z,8.60
2018-06-16T04:02:52.938Z,9.80
2018-06-16T04:05:20.458Z,9.53
2018-06-16T04:07:48.002Z,10.07
2018-06-16T04:10:15.519Z,9.17
2018-06-16T04:12:43.077Z,9.83
2018-06-16T04:15:10.618Z,9.10
2018-06-16T04:17:38.142Z,9.67
2018-06-16T04:20:05.743Z,8.63
2018-06-16T04:22:33.445Z,8.93
2018-06-16T04:25:00.985Z,9.33
2018-06-16T04:27:29.198Z,9.87
2018-06-16T04:29:56.766Z,8.93
2018-06-16T04:32:24.322Z,9.20
2018-06-16T04:34:51.928Z,8.57
2018-06-16T04:37:19.453Z,8.87
2018-06-16T04:39:46.970Z,9.40
2018-06-16T04:42:14.489Z,9.57
2018-06-16T04:44:42.046Z,9.87
2018-06-16T04:47:09.608Z,9.50
2018-06-16T04:49:37.110Z,9.37
2018-06-16T04:52:04.789Z,9.47
2018-06-16T04:54:32.293Z,9.37
2018-06-16T04:56:59.858Z,9.93
2018-06-16T04:59:27.365Z,10.70
2018-06-16T05:01:54.867Z,10.17
2018-06-16T05:04:22.392Z,11.00
2018-06-16T05:06:49.889Z,10.13
2018-06-16T05:09:17.429Z,10.00
2018-06-16T05:11:44.962Z,9.80
2018-06-16T05:14:12.501Z,9.97
2018-06-16T05:16:40.005Z,10.00
2018-06-16T05:19:07.539Z,9.67
2018-06-16T05:21:35.090Z,9.73
2018-06-16T05:24:02.598Z,10.97
2018-06-16T05:26:30.118Z,10.57
2018-06-16T05:28:57.686Z,10.23
2018-06-16T05:31:25.258Z,10.60
2018-06-16T05:33:53.017Z,11.10
2018-06-16T05:36:20.766Z,10.10
2018-06-16T05:38:48.429Z,9.87
2018-06-16T05:41:15.984Z,9.67
2018-06-16T05:43:43.534Z,10.03
2018-06-16T05:46:11.083Z,10.00
2018-06-16T05:48:38.634Z,9.90
2018-06-16T05:51:06.150Z,10.37
2018-06-16T05:53:33.665Z,10.70
2018-06-16T05:56:01.163Z,10.70
2018-06-16T05:58:28.718Z,10.63
2018-06-16T06:00:56.249Z,11.53
2018-06-16T06:03:23.947Z,10.93
2018-06-16T06:05:51.452Z,11.03
2018-06-16T06:08:18.997Z,11.70
2018-06-16T06:10:46.574Z,11.53
2018-06-16T06:13:14.158Z,30.20
2018-06-16T06:15:41.764Z,34.60
2018-06-16T06:18:09.273Z,37.73
2018-06-16T06:20:36.813Z,28.10
2018-06-16T06:23:04.379Z,24.80
2018-06-16T06:25:31.971Z,23.57
2018-06-16T06:27:59.510Z,12.53
2018-06-16T06:30:27.162Z,10.73
2018-06-16T06:32:54.675Z,10.50
2018-06-16T06:35:22.191Z,10.47
2018-06-16T06:37:50.022Z,10.50
2018-06-16T06:40:17.547Z,10.57
2018-06-16T06:42:45.673Z,10.20
2018-06-16T06:45:13.335Z,10.40
2018-06-16T06:47:40.920Z,10.27
2018-06-16T06:50:08.429Z,9.70
2018-06-16T06:52:36.014Z,10.00
2018-06-16T06:55:03.531Z,11.00
2018-06-16T06:57:31.038Z,11.10
2018-06-16T06:59:58.578Z,10.47
2018-06-16T07:02:26.103Z,12.43
2018-06-16T07:04:53.636Z,11.07
2018-06-16T07:07:21.402Z,10.03
2018-06-16T07:09:48.926Z,10.27
2018-06-16T07:12:18.290Z,10.60
2018-06-16T07:14:45.855Z,9.93
2018-06-16T07:17:13.362Z,10.87
2018-06-16T07:19:40.877Z,10.33
2018-06-16T07:22:08.418Z,10.57
2018-06-16T07:24:35.942Z,10.70
2018-06-16T07:27:03.585Z,10.27
2018-06-16T07:29:31.078Z,10.07
2018-06-16T07:31:58.633Z,10.70
2018-06-16T07:34:26.151Z,11.20
2018-06-16T07:36:53.702Z,11.13
2018-06-16T07:39:21.202Z,11.80
2018-06-16T07:41:48.719Z,10.53
2018-06-16T07:44:16.230Z,10.87
2018-06-16T07:46:44.651Z,12.47
2018-06-16T07:49:12.326Z,12.50
2018-06-16T07:51:39.836Z,11.77
2018-06-16T07:54:07.384Z,17.70
2018-06-16T07:56:35.231Z,17.87
2018-06-16T07:59:02.762Z,16.80
2018-06-16T08:01:30.322Z,12.07
2018-06-16T08:03:57.876Z,9.97
2018-06-16T08:06:25.456Z,9.77
2018-06-16T08:08:52.969Z,9.80
2018-06-16T08:11:20.513Z,10.00
2018-06-16T08:13:48.026Z,9.63
2018-06-16T08:16:15.564Z,10.27
2018-06-16T08:18:43.090Z,9.23
2018-06-16T08:21:10.649Z,9.97
2018-06-16T08:23:38.215Z,8.47
2018-06-16T08:26:05.785Z,9.30
2018-06-16T08:28:33.306Z,9.40
2018-06-16T08:31:00.807Z,9.47
2018-06-16T08:33:28.502Z,9.03
2018-06-16T08:35:56.063Z,8.60
2018-06-16T08:38:23.598Z,7.77
2018-06-16T08:40:51.102Z,9.03
2018-06-16T08:43:18.686Z,8.73
2018-06-16T08:45:46.220Z,8.43
2018-06-16T08:48:13.746Z,7.83
2018-06-16T08:50:41.295Z,7.43
2018-06-16T08:53:08.991Z,7.37
2018-06-16T08:55:36.653Z,8.70
2018-06-16T08:58:04.022Z,8.20
2018-06-16T09:00:31.554Z,10.73
2018-06-16T09:02:59.041Z,12.57
2018-06-16T09:05:26.631Z,7.33
2018-06-16T09:07:54.159Z,13.37
2018-06-16T09:10:21.708Z,11.40
2018-06-16T09:12:49.219Z,11.07
2018-06-16T09:15:16.804Z,8.60
2018-06-16T09:17:44.323Z,7.60
2018-06-16T09:20:11.967Z,7.00
2018-06-16T09:22:39.515Z,7.73
2018-06-16T09:25:07.018Z,7.67
2018-06-16T09:27:34.591Z,7.47
2018-06-16T09:30:02.140Z,7.07
2018-06-16T09:32:29.703Z,7.90
2018-06-16T09:34:57.429Z,7.13
2018-06-16T09:37:24.972Z,6.10
2018-06-16T09:39:52.495Z,6.40
2018-06-16T09:42:20.067Z,6.57
2018-06-16T09:44:47.614Z,6.60
2018-06-16T09:47:15.246Z,6.60
2018-06-16T09:49:42.781Z,7.57
2018-06-16T09:52:10.310Z,10.00
2018-06-16T09:54:37.833Z,6.80
2018-06-16T09:57:05.350Z,5.80
2018-06-16T09:59:32.896Z,6.60
2018-06-16T10:02:00.406Z,5.93
2018-06-16T10:04:27.988Z,6.53
2018-06-16T10:06:55.531Z,6.20
2018-06-16T10:09:23.087Z,6.47
2018-06-16T10:11:50.618Z,6.67
2018-06-16T10:14:18.142Z,6.83
2018-06-16T10:16:45.776Z,5.67
2018-06-16T10:19:13.294Z,6.53
2018-06-16T10:21:40.857Z,6.93
2018-06-16T10:24:08.668Z,7.13
2018-06-16T10:26:36.271Z,7.00
2018-06-16T10:29:04.074Z,6.50
2018-06-16T10:31:31.976Z,6.40
2018-06-16T10:34:00.293Z,6.40
2018-06-16T10:36:28.077Z,6.17
2018-06-16T10:38:55.607Z,7.10
2018-06-16T10:41:23.122Z,6.30
2018-06-16T10:43:50.649Z,6.33
2018-06-16T10:46:18.166Z,6.93
2018-06-16T10:48:45.698Z,6.70
2018-06-16T10:51:13.283Z,7.33
2018-06-16T10:53:40.966Z,6.60
2018-06-16T10:56:08.533Z,6.60
2018-06-16T10:58:36.091Z,7.00
2018-06-16T11:01:03.669Z,7.37
2018-06-16T11:03:31.238Z,7.20
2018-06-16T11:05:58.786Z,6.70
2018-06-16T11:08:26.294Z,6.93
2018-06-16T11:10:53.847Z,6.80
2018-06-16T11:13:21.395Z,6.50
2018-06-16T11:15:48.959Z,6.13
2018-06-16T11:18:16.490Z,7.20
2018-06-16T11:20:44.005Z,5.93
2018-06-16T11:23:11.543Z,7.13
2018-06-16T11:25:39.054Z,5.90
2018-06-16T11:28:06.619Z,5.93
2018-06-16T11:30:34.116Z,8.00
2018-06-16T11:33:01.642Z,10.30
2018-06-16T11:35:29.174Z,9.33
2018-06-16T11:37:56.723Z,8.00
2018-06-16T11:40:24.270Z,6.60
2018-06-16T11:42:51.823Z,7.43
2018-06-16T11:45:19.405Z,6.17
2018-06-16T11:47:46.921Z,5.77
2018-06-16T11:50:14.516Z,6.10
2018-06-16T11:52:42.045Z,5.50
2018-06-16T11:55:09.601Z,4.97
2018-06-16T11:57:37.190Z,6.10
2018-06-16T12:00:04.703Z,5.00
2018-06-16T12:02:32.260Z,5.30
2018-06-16T12:04:59.874Z,4.97
2018-06-16T12:07:27.398Z,5.60
2018-06-16T12:09:54.922Z,5.10
2018-06-16T12:12:22.506Z,8.20
2018-06-16T12:14:50.070Z,10.23
2018-06-16T12:17:18.227Z,8.27
2018-06-16T12:19:45.761Z,5.40
2018-06-16T12:22:13.355Z,7.33
2018-06-16T12:24:40.906Z,5.70
2018-06-16T12:27:08.469Z,5.17
2018-06-16T12:29:36.154Z,6.13
2018-06-16T12:32:03.724Z,5.10
2018-06-16T12:34:31.410Z,5.50
2018-06-16T12:36:58.961Z,4.87
2018-06-16T12:39:26.559Z,4.90
2018-06-16T12:41:54.139Z,5.97
2018-06-16T12:44:21.675Z,4.87
2018-06-16T12:46:49.255Z,4.57
2018-06-16T12:49:16.803Z,4.63
2018-06-16T12:51:44.374Z,4.37
2018-06-16T12:54:11.921Z,4.17
2018-06-16T12:56:39.459Z,4.00
2018-06-16T12:59:07.011Z,3.80
2018-06-16T13:01:34.567Z,3.97
2018-06-16T13:04:02.091Z,3.83
2018-06-16T13:06:29.613Z,4.30
2018-06-16T13:08:57.210Z,4.53
2018-06-16T13:11:24.722Z,3.60
2018-06-16T13:13:52.301Z,4.20
2018-06-16T13:16:19.803Z,4.10
2018-06-16T13:18:47.374Z,4.43
2018-06-16T13:21:14.934Z,4.20
2018-06-16T13:23:42.480Z,4.47
2018-06-16T13:26:10.049Z,4.50
2018-06-16T13:28:37.630Z,4.57
2018-06-16T13:31:05.199Z,4.77
2018-06-16T13:33:32.725Z,4.43
2018-06-16T13:36:00.253Z,4.77
2018-06-16T13:38:27.790Z,4.20
2018-06-16T13:40:55.466Z,4.77
2018-06-16T13:43:23.012Z,5.80
2018-06-16T13:45:51.358Z,8.23
2018-06-16T13:48:18.993Z,6.47
2018-06-16T13:50:46.839Z,8.70
2018-06-16T13:53:14.958Z,7.20
2018-06-16T13:55:42.648Z,6.63
2018-06-16T13:58:10.451Z,4.40
2018-06-16T14:00:37.963Z,5.87
2018-06-16T14:03:05.611Z,5.30
2018-06-16T14:05:34.042Z,4.73
2018-06-16T14:08:01.602Z,4.87
2018-06-16T14:10:29.314Z,4.83
2018-06-16T14:12:57.058Z,4.73
2018-06-16T14:15:24.790Z,5.23
2018-06-16T14:17:52.322Z,4.77
2018-06-16T14:20:19.877Z,5.27
2018-06-16T14:22:47.463Z,6.47
2018-06-16T14:25:15.131Z,5.33
2018-06-16T14:27:42.831Z,5.73
2018-06-16T14:30:10.546Z,7.73
2018-06-16T14:32:38.159Z,5.43
2018-06-16T14:35:05.867Z,5.00
2018-06-16T14:37:33.392Z,4.77
2018-06-16T14:40:00.915Z,6.47
2018-06-16T14:42:28.502Z,5.03
2018-06-16T14:44:56.832Z,5.03
2018-06-16T14:47:24.627Z,9.50
2018-06-16T14:49:52.201Z,7.90
2018-06-16T14:52:19.803Z,18.90
2018-06-16T14:54:47.543Z,14.57
2018-06-16T14:57:15.426Z,8.60
2018-06-16T14:59:43.171Z,6.97
2018-06-16T15:02:11.151Z,20.47
2018-06-16T15:04:39.024Z,8.73
2018-06-16T15:07:06.813Z,8.07
2018-06-16T15:09:34.425Z,7.27
2018-06-16T15:12:01.998Z,7.53
2018-06-16T15:14:29.550Z,8.07
2018-06-16T15:16:57.276Z,7.87
2018-06-16T15:19:25.003Z,10.10
2018-06-16T15:21:52.552Z,5.27
2018-06-16T15:24:20.139Z,5.83
2018-06-16T15:26:47.877Z,5.87
2018-06-16T15:29:15.448Z,6.37
2018-06-16T15:31:43.023Z,6.63
2018-06-16T15:34:10.567Z,6.20
2018-06-16T15:36:38.564Z,6.37
2018-06-16T15:39:07.535Z,5.97
2018-06-16T15:41:35.237Z,5.20
2018-06-16T15:44:02.911Z,5.00
2018-06-16T15:46:30.728Z,6.17
2018-06-16T15:48:58.367Z,13.03
2018-06-16T15:51:25.955Z,7.07
2018-06-16T15:53:53.515Z,5.50
2018-06-16T15:56:21.070Z,5.40
2018-06-16T15:58:48.687Z,6.23
2018-06-16T16:01:16.259Z,5.30
2018-06-16T16:03:43.823Z,5.90
2018-06-16T16:06:11.369Z,5.60
2018-06-16T16:08:38.946Z,9.57
2018-06-16T16:11:06.510Z,7.83
2018-06-16T16:13:34.062Z,6.00
2018-06-16T16:16:01.651Z,5.17
2018-06-16T16:18:29.271Z,4.87
2018-06-16T16:20:56.986Z,4.90
2018-06-16T16:23:24.565Z,5.93
2018-06-16T16:25:52.142Z,4.80
2018-06-16T16:28:19.686Z,4.77
2018-06-16T16:30:47.389Z,5.47
2018-06-16T16:33:14.929Z,5.00
2018-06-16T16:35:42.511Z,5.37
2018-06-16T16:38:10.108Z,4.90
2018-06-16T16:40:37.794Z,4.73
2018-06-16T16:43:05.439Z,5.47
2018-06-16T16:45:32.978Z,5.20
2018-06-16T16:48:00.558Z,5.50
2018-06-16T16:50:28.147Z,17.80
2018-06-16T16:52:55.736Z,20.97
2018-06-16T16:55:23.302Z,7.17
2018-06-16T16:57:50.867Z,6.20
2018-06-16T17:00:18.591Z,5.83
2018-06-16T17:02:46.199Z,4.90
2018-06-16T17:05:13.751Z,5.80
2018-06-16T17:07:41.338Z,5.90
2018-06-16T17:10:08.929Z,5.40
2018-06-16T17:12:36.515Z,4.90
2018-06-16T17:15:04.235Z,5.20
2018-06-16T17:17:31.852Z,5.00
2018-06-16T17:19:59.466Z,5.27
2018-06-16T17:22:27.023Z,5.47
2018-06-16T17:24:54.718Z,5.00
2018-06-16T17:27:22.335Z,5.67
2018-06-16T17:29:49.907Z,6.80
2018-06-16T17:32:17.525Z,5.53
2018-06-16T17:34:45.159Z,5.40
2018-06-16T17:37:12.737Z,5.63
2018-06-16T17:39:40.295Z,5.70
2018-06-16T17:42:07.837Z,6.10
2018-06-16T17:44:36.620Z,7.03
2018-06-16T17:47:04.200Z,9.07
2018-06-16T17:49:31.785Z,8.20
2018-06-16T17:51:59.366Z,6.50
2018-06-16T17:54:26.992Z,6.37
2018-06-16T17:56:54.575Z,7.80
2018-06-16T17:59:22.126Z,7.20
2018-06-16T18:01:49.850Z,6.90
2018-06-16T18:04:17.411Z,6.83
2018-06-16T18:06:44.995Z,6.70
2018-06-16T18:09:12.937Z,6.70
2018-06-16T18:11:40.549Z,7.37
2018-06-16T18:14:08.405Z,7.67
2018-06-16T18:16:35.999Z,16.70
2018-06-16T18:19:03.599Z,15.60
2018-06-16T18:21:31.447Z,14.07
2018-06-16T18:23:58.967Z,9.90
2018-06-16T18:26:26.564Z,8.57
2018-06-16T18:28:54.126Z,7.87
2018-06-16T18:31:21.739Z,7.40
2018-06-16T18:33:49.363Z,8.30
2018-06-16T18:36:16.930Z,10.60
2018-06-16T18:38:44.555Z,10.47
2018-06-16T18:41:12.091Z,9.60
2018-06-16T18:43:39.679Z,8.60
2018-06-16T18:46:07.226Z,8.47
2018-06-16T18:48:34.814Z,8.47
2018-06-16T18:51:02.561Z,9.00
2018-06-16T18:53:30.112Z,7.80
2018-06-16T18:55:57.646Z,7.47
2018-06-16T18:58:25.173Z,7.40
2018-06-16T19:00:52.728Z,7.10
2018-06-16T19:03:20.267Z,8.97
2018-06-16T19:05:47.934Z,8.37
2018-06-16T19:08:15.503Z,7.97
2018-06-16T19:10:43.135Z,8.60
2018-06-16T19:13:10.671Z,8.93
2018-06-16T19:15:38.243Z,7.53
2018-06-16T19:18:05.926Z,8.23
2018-06-16T19:20:33.521Z,9.00
2018-06-16T19:23:01.144Z,8.83
2018-06-16T19:25:28.974Z,9.03
2018-06-16T19:27:56.536Z,8.67
2018-06-16T19:30:24.131Z,8.80
2018-06-16T19:32:52.079Z,8.33
2018-06-16T19:35:19.691Z,8.60
2018-06-16T19:37:47.189Z,9.47
2018-06-16T19:40:14.811Z,10.47
2018-06-16T19:42:42.387Z,10.40
2018-06-16T19:45:09.970Z,9.77
2018-06-16T19:47:37.588Z,10.20
2018-06-16T19:50:05.398Z,66.67
2018-06-16T19:52:33.015Z,36.80
2018-06-16T19:55:00.675Z,17.63
2018-06-16T19:57:28.301Z,14.70
2018-06-16T19:59:56.195Z,11.73
2018-06-16T20:02:23.806Z,12.87
2018-06-16T20:04:51.628Z,12.07
2018-06-16T20:07:19.321Z,12.37
2018-06-16T20:09:46.987Z,10.33
2018-06-16T20:12:14.611Z,9.37
2018-06-16T20:14:42.369Z,11.30
2018-06-16T20:17:09.908Z,12.33
2018-06-16T20:19:37.578Z,10.63
2018-06-16T20:22:05.342Z,10.30
2018-06-16T20:24:33.013Z,9.40
2018-06-16T20:27:00.690Z,9.57
2018-06-16T20:29:28.460Z,9.23
2018-06-16T20:31:56.986Z,10.33
2018-06-16T20:34:24.739Z,9.60
2018-06-16T20:36:52.462Z,9.73
2018-06-16T20:39:20.259Z,8.93
2018-06-16T20:41:48.146Z,8.73
2018-06-16T20:44:15.934Z,9.40
2018-06-16T20:46:43.812Z,10.40
2018-06-16T20:49:11.569Z,9.33
2018-06-16T20:51:39.438Z,9.27
2018-06-16T20:54:07.191Z,10.40
2018-06-16T20:56:34.875Z,10.10
2018-06-16T20:59:02.686Z,10.60
2018-06-16T21:01:30.319Z,11.70
2018-06-16T21:03:58.487Z,11.77
2018-06-16T21:06:26.292Z,12.27
2018-06-16T21:08:54.283Z,11.23
2018-06-16T21:11:22.018Z,11.77
2018-06-16T21:13:50.894Z,10.67
2018-06-16T21:16:18.658Z,12.70
2018-06-16T21:18:46.246Z,13.07
2018-06-16T21:21:13.855Z,14.27
2018-06-16T21:23:41.453Z,13.83
2018-06-16T21:26:09.162Z,13.97
2018-06-16T21:28:36.683Z,14.73
2018-06-16T21:31:04.364Z,12.77
2018-06-16T21:33:31.955Z,14.43
2018-06-16T21:35:59.512Z,14.00
2018-06-16T21:38:27.177Z,14.03
2018-06-16T21:40:54.746Z,14.27
2018-06-16T21:43:22.324Z,16.83
2018-06-16T21:45:49.943Z,14.40
2018-06-16T21:48:17.602Z,13.60
2018-06-16T21:50:45.395Z,14.00
2018-06-16T21:53:12.968Z,13.57
2018-06-16T21:55:40.510Z,14.80
2018-06-16T21:58:08.067Z,16.50
2018-06-16T22:00:36.011Z,14.17
2018-06-16T22:03:04.984Z,15.20
2018-06-16T22:05:32.599Z,15.03
2018-06-16T22:08:05.772Z,13.07
2018-06-16T22:10:33.305Z,13.27
2018-06-16T22:13:00.871Z,12.43
2018-06-16T22:15:28.450Z,13.07
2018-06-16T22:17:55.955Z,12.13
2018-06-16T22:20:23.514Z,13.73
2018-06-16T22:22:51.046Z,13.30
2018-06-16T22:25:18.622Z,11.80
2018-06-16T22:27:46.199Z,10.80
2018-06-16T22:30:13.813Z,11.57
2018-06-16T22:32:41.491Z,11.50
2018-06-16T22:35:09.000Z,10.80
2018-06-16T22:37:36.743Z,10.80
2018-06-16T22:40:04.371Z,10.97
2018-06-16T22:42:31.950Z,10.47
2018-06-16T22:44:59.662Z,11.40
2018-06-16T22:47:27.291Z,11.53
2018-06-16T22:49:54.936Z,10.70
2018-06-16T22:52:22.473Z,11.43
2018-06-16T22:54:49.986Z,12.03
2018-06-16T22:57:17.659Z,11.00
2018-06-16T22:59:45.197Z,11.80
2018-06-16T23:02:12.846Z,11.57
2018-06-16T23:04:40.379Z,12.20
2018-06-16T23:07:07.914Z,12.13
2018-06-16T23:09:35.624Z,10.87
2018-06-16T23:12:03.163Z,10.93
2018-06-16T23:14:30.914Z,11.03
2018-06-16T23:16:58.470Z,11.47
2018-06-16T23:19:26.002Z,12.33
2018-06-16T23:21:53.716Z,10.40
2018-06-16T23:24:21.433Z,12.40
2018-06-16T23:26:49.082Z,12.70
2018-06-16T23:29:16.587Z,11.43
2018-06-16T23:31:44.179Z,11.37
2018-06-16T23:34:11.937Z,11.10
2018-06-16T23:36:39.543Z,11.40
2018-06-16T23:39:09.567Z,10.80
2018-06-16T23:41:37.258Z,11.43
2018-06-16T23:44:04.942Z,10.47
2018-06-16T23:46:32.611Z,11.47
2018-06-16T23:49:00.575Z,11.53
2018-06-16T23:51:28.257Z,11.33
2018-06-16T23:53:55.806Z,11.57
2018-06-16T23:56:23.503Z,12.20
2018-06-16T23:58:51.278Z,12.43
